sensor_id;sensor_type;location;lat;lon;timestamp;P1;durP1;ratioP1;P2;durP2;ratioP2
75007;SDS011;63554;48.940;12.050;2022-09-21T00:02:42;3.45;;;2.00;;
75007;SDS011;63554;48.940;12.050;2022-09-21T00:05:44;2.75;;;1.80;;
75007;SDS011;63554;48.940;12.050;2022-09-21T00:08:46;2.63;;;1.80;;
75007;SDS011;63554;48.940;12.050;2022-09-21T00:11:48;3.85;;;2.00;;
75007;SDS011;63554;48.940;12.050;2022-09-21T00:14:52;2.78;;;2.08;;
75007;SDS011;63554;48.940;12.050;2022-09-21T00:17:55;7.07;;;2.33;;
75007;SDS011;63554;48.940;12.050;2022-09-21T00:20:58;6.50;;;2.38;;
75007;SDS011;63554;48.940;12.050;2022-09-21T00:24:00;24.98;;;3.70;;
75007;SDS011;63554;48.940;12.050;2022-09-21T00:27:02;25.15;;;3.17;;
75007;SDS011;63554;48.940;12.050;2022-09-21T00:30:06;5.15;;;2.03;;
75007;SDS011;63554;48.940;12.050;2022-09-21T00:33:09;3.40;;;2.13;;
75007;SDS011;63554;48.940;12.050;2022-09-21T00:36:11;4.40;;;2.40;;
75007;SDS011;63554;48.940;12.050;2022-09-21T00:39:15;3.45;;;2.15;;
75007;SDS011;63554;48.940;12.050;2022-09-21T00:42:17;2.60;;;2.10;;
75007;SDS011;63554;48.940;12.050;2022-09-21T00:45:22;5.25;;;1.95;;
75007;SDS011;63554;48.940;12.050;2022-09-21T00:48:24;3.45;;;2.08;;
75007;SDS011;63554;48.940;12.050;2022-09-21T00:51:26;22.67;;;2.53;;
75007;SDS011;63554;48.940;12.050;2022-09-21T00:54:28;11.27;;;2.35;;
75007;SDS011;63554;48.940;12.050;2022-09-21T00:57:36;13.32;;;2.85;;
75007;SDS011;63554;48.940;12.050;2022-09-21T01:00:39;16.48;;;2.55;;
75007;SDS011;63554;48.940;12.050;2022-09-21T01:03:42;11.95;;;2.17;;
75007;SDS011;63554;48.940;12.050;2022-09-21T01:06:44;3.38;;;2.30;;
75007;SDS011;63554;48.940;12.050;2022-09-21T01:09:48;27.20;;;3.17;;
75007;SDS011;63554;48.940;12.050;2022-09-21T01:12:54;57.83;;;4.47;;
75007;SDS011;63554;48.940;12.050;2022-09-21T01:16:07;39.63;;;3.75;;
75007;SDS011;63554;48.940;12.050;2022-09-21T01:19:18;7.07;;;2.13;;
75007;SDS011;63554;48.940;12.050;2022-09-21T01:22:30;17.48;;;2.70;;
75007;SDS011;63554;48.940;12.050;2022-09-21T01:25:41;5.35;;;1.90;;
75007;SDS011;63554;48.940;12.050;2022-09-21T01:29:04;18.50;;;2.83;;
75007;SDS011;63554;48.940;12.050;2022-09-21T01:32:21;12.30;;;2.47;;
75007;SDS011;63554;48.940;12.050;2022-09-21T01:35:27;10.65;;;2.05;;
75007;SDS011;63554;48.940;12.050;2022-09-21T01:38:34;10.38;;;2.00;;
75007;SDS011;63554;48.940;12.050;2022-09-21T01:41:41;2.75;;;1.95;;
75007;SDS011;63554;48.940;12.050;2022-09-21T01:47:48;5.85;;;2.17;;
75007;SDS011;63554;48.940;12.050;2022-09-21T01:50:52;8.60;;;2.22;;
75007;SDS011;63554;48.940;12.050;2022-09-21T01:53:57;22.23;;;2.63;;
75007;SDS011;63554;48.940;12.050;2022-09-21T01:57:04;27.35;;;2.97;;
75007;SDS011;63554;48.940;12.050;2022-09-21T02:00:12;10.07;;;1.92;;
75007;SDS011;63554;48.940;12.050;2022-09-21T02:03:18;29.05;;;2.90;;
75007;SDS011;63554;48.940;12.050;2022-09-21T02:06:25;38.20;;;3.13;;
75007;SDS011;63554;48.940;12.050;2022-09-21T02:09:29;6.05;;;2.25;;
75007;SDS011;63554;48.940;12.050;2022-09-21T02:12:31;33.60;;;2.90;;
75007;SDS011;63554;48.940;12.050;2022-09-21T02:15:37;6.10;;;1.90;;
75007;SDS011;63554;48.940;12.050;2022-09-21T02:18:50;40.80;;;3.25;;
75007;SDS011;63554;48.940;12.050;2022-09-21T02:22:02;8.98;;;1.77;;
75007;SDS011;63554;48.940;12.050;2022-09-21T02:25:08;2.83;;;1.38;;
75007;SDS011;63554;48.940;12.050;2022-09-21T02:28:14;30.10;;;3.25;;
75007;SDS011;63554;48.940;12.050;2022-09-21T02:31:29;56.55;;;4.35;;
75007;SDS011;63554;48.940;12.050;2022-09-21T02:34:38;10.52;;;2.20;;
75007;SDS011;63554;48.940;12.050;2022-09-21T02:37:46;113.65;;;5.85;;
75007;SDS011;63554;48.940;12.050;2022-09-21T02:40:59;24.95;;;2.85;;
75007;SDS011;63554;48.940;12.050;2022-09-21T02:44:08;54.70;;;3.60;;
75007;SDS011;63554;48.940;12.050;2022-09-21T02:47:15;9.40;;;1.77;;
75007;SDS011;63554;48.940;12.050;2022-09-21T02:50:20;7.40;;;1.95;;
75007;SDS011;63554;48.940;12.050;2022-09-21T02:53:26;26.25;;;2.58;;
75007;SDS011;63554;48.940;12.050;2022-09-21T02:56:31;23.05;;;2.60;;
75007;SDS011;63554;48.940;12.050;2022-09-21T02:59:34;6.97;;;2.00;;
75007;SDS011;63554;48.940;12.050;2022-09-21T03:02:38;57.35;;;3.88;;
75007;SDS011;63554;48.940;12.050;2022-09-21T03:05:42;7.20;;;1.92;;
75007;SDS011;63554;48.940;12.050;2022-09-21T03:08:45;19.13;;;2.55;;
75007;SDS011;63554;48.940;12.050;2022-09-21T03:11:47;31.35;;;2.90;;
75007;SDS011;63554;48.940;12.050;2022-09-21T03:14:49;20.95;;;2.65;;
75007;SDS011;63554;48.940;12.050;2022-09-21T03:17:52;26.02;;;2.38;;
75007;SDS011;63554;48.940;12.050;2022-09-21T03:20:54;38.53;;;2.85;;
75007;SDS011;63554;48.940;12.050;2022-09-21T03:23:56;25.30;;;2.47;;
75007;SDS011;63554;48.940;12.050;2022-09-21T03:26:58;18.35;;;2.30;;
75007;SDS011;63554;48.940;12.050;2022-09-21T03:29:59;18.73;;;2.38;;
75007;SDS011;63554;48.940;12.050;2022-09-21T03:33:02;2.20;;;1.48;;
75007;SDS011;63554;48.940;12.050;2022-09-21T03:36:05;6.20;;;1.85;;
75007;SDS011;63554;48.940;12.050;2022-09-21T03:39:08;1.95;;;1.60;;
75007;SDS011;63554;48.940;12.050;2022-09-21T03:42:09;10.80;;;2.10;;
75007;SDS011;63554;48.940;12.050;2022-09-21T03:45:13;7.50;;;1.48;;
75007;SDS011;63554;48.940;12.050;2022-09-21T03:48:16;8.10;;;1.83;;
75007;SDS011;63554;48.940;12.050;2022-09-21T03:51:18;25.50;;;2.42;;
75007;SDS011;63554;48.940;12.050;2022-09-21T03:54:19;2.60;;;2.00;;
75007;SDS011;63554;48.940;12.050;2022-09-21T03:57:21;4.60;;;2.40;;
75007;SDS011;63554;48.940;12.050;2022-09-21T04:00:23;2.45;;;1.80;;
75007;SDS011;63554;48.940;12.050;2022-09-21T04:03:26;1.73;;;1.58;;
75007;SDS011;63554;48.940;12.050;2022-09-21T04:06:28;1.80;;;1.70;;
75007;SDS011;63554;48.940;12.050;2022-09-21T04:09:30;2.67;;;1.90;;
75007;SDS011;63554;48.940;12.050;2022-09-21T04:12:32;2.38;;;1.63;;
75007;SDS011;63554;48.940;12.050;2022-09-21T04:15:35;1.85;;;1.67;;
75007;SDS011;63554;48.940;12.050;2022-09-21T04:18:38;2.35;;;1.70;;
75007;SDS011;63554;48.940;12.050;2022-09-21T04:21:40;2.78;;;1.90;;
75007;SDS011;63554;48.940;12.050;2022-09-21T04:24:41;3.55;;;2.05;;
75007;SDS011;63554;48.940;12.050;2022-09-21T04:27:43;2.90;;;2.03;;
75007;SDS011;63554;48.940;12.050;2022-09-21T04:30:45;2.47;;;2.10;;
75007;SDS011;63554;48.940;12.050;2022-09-21T04:33:49;2.35;;;1.90;;
75007;SDS011;63554;48.940;12.050;2022-09-21T04:36:51;2.40;;;2.20;;
75007;SDS011;63554;48.940;12.050;2022-09-21T04:39:53;2.92;;;2.20;;
75007;SDS011;63554;48.940;12.050;2022-09-21T04:42:55;1.92;;;1.35;;
75007;SDS011;63554;48.940;12.050;2022-09-21T04:45:57;2.83;;;2.35;;
75007;SDS011;63554;48.940;12.050;2022-09-21T04:49:05;4.32;;;2.75;;
75007;SDS011;63554;48.940;12.050;2022-09-21T04:52:07;3.33;;;2.20;;
75007;SDS011;63554;48.940;12.050;2022-09-21T04:55:09;3.28;;;2.10;;
75007;SDS011;63554;48.940;12.050;2022-09-21T04:58:11;3.70;;;2.47;;
75007;SDS011;63554;48.940;12.050;2022-09-21T05:01:12;3.15;;;2.42;;
75007;SDS011;63554;48.940;12.050;2022-09-21T05:04:16;4.13;;;3.30;;
75007;SDS011;63554;48.940;12.050;2022-09-21T05:07:17;5.22;;;3.35;;
75007;SDS011;63554;48.940;12.050;2022-09-21T05:10:19;8.23;;;3.35;;
75007;SDS011;63554;48.940;12.050;2022-09-21T05:13:21;3.30;;;2.50;;
75007;SDS011;63554;48.940;12.050;2022-09-21T05:16:23;3.08;;;2.70;;
75007;SDS011;63554;48.940;12.050;2022-09-21T05:19:26;3.65;;;3.10;;
75007;SDS011;63554;48.940;12.050;2022-09-21T05:22:28;4.15;;;3.25;;
75007;SDS011;63554;48.940;12.050;2022-09-21T05:25:29;4.78;;;3.20;;
75007;SDS011;63554;48.940;12.050;2022-09-21T05:28:31;3.92;;;2.97;;
75007;SDS011;63554;48.940;12.050;2022-09-21T05:31:38;5.40;;;3.00;;
75007;SDS011;63554;48.940;12.050;2022-09-21T05:34:48;3.97;;;3.28;;
75007;SDS011;63554;48.940;12.050;2022-09-21T05:37:57;4.88;;;3.05;;
75007;SDS011;63554;48.940;12.050;2022-09-21T05:41:03;10.57;;;3.45;;
75007;SDS011;63554;48.940;12.050;2022-09-21T05:44:08;4.50;;;3.13;;
75007;SDS011;63554;48.940;12.050;2022-09-21T05:47:15;6.03;;;3.70;;
75007;SDS011;63554;48.940;12.050;2022-09-21T05:50:32;9.70;;;3.40;;
75007;SDS011;63554;48.940;12.050;2022-09-21T05:53:45;8.40;;;3.15;;
75007;SDS011;63554;48.940;12.050;2022-09-21T05:56:52;4.55;;;2.67;;
75007;SDS011;63554;48.940;12.050;2022-09-21T06:00:02;17.17;;;3.45;;
75007;SDS011;63554;48.940;12.050;2022-09-21T06:03:20;4.72;;;3.00;;
75007;SDS011;63554;48.940;12.050;2022-09-21T06:06:29;24.35;;;3.25;;
75007;SDS011;63554;48.940;12.050;2022-09-21T06:09:31;7.47;;;2.70;;
75007;SDS011;63554;48.940;12.050;2022-09-21T06:12:33;10.70;;;3.20;;
75007;SDS011;63554;48.940;12.050;2022-09-21T06:15:35;19.23;;;3.50;;
75007;SDS011;63554;48.940;12.050;2022-09-21T06:18:37;15.93;;;3.60;;
75007;SDS011;63554;48.940;12.050;2022-09-21T06:21:40;13.30;;;2.88;;
75007;SDS011;63554;48.940;12.050;2022-09-21T06:24:42;9.75;;;2.60;;
75007;SDS011;63554;48.940;12.050;2022-09-21T06:27:44;15.07;;;3.67;;
75007;SDS011;63554;48.940;12.050;2022-09-21T06:30:49;20.98;;;4.32;;
75007;SDS011;63554;48.940;12.050;2022-09-21T06:33:52;20.35;;;3.08;;
75007;SDS011;63554;48.940;12.050;2022-09-21T06:36:55;33.75;;;3.78;;
75007;SDS011;63554;48.940;12.050;2022-09-21T06:39:57;3.92;;;2.95;;
75007;SDS011;63554;48.940;12.050;2022-09-21T06:42:59;6.47;;;3.22;;
75007;SDS011;63554;48.940;12.050;2022-09-21T06:46:02;39.35;;;4.75;;
75007;SDS011;63554;48.940;12.050;2022-09-21T06:49:04;10.18;;;4.57;;
75007;SDS011;63554;48.940;12.050;2022-09-21T06:52:07;20.15;;;3.95;;
75007;SDS011;63554;48.940;12.050;2022-09-21T06:55:09;18.33;;;4.15;;
75007;SDS011;63554;48.940;12.050;2022-09-21T06:58:11;19.90;;;4.55;;
75007;SDS011;63554;48.940;12.050;2022-09-21T07:01:13;18.80;;;4.28;;
75007;SDS011;63554;48.940;12.050;2022-09-21T07:04:16;4.80;;;3.30;;
75007;SDS011;63554;48.940;12.050;2022-09-21T07:07:19;8.93;;;3.97;;
75007;SDS011;63554;48.940;12.050;2022-09-21T07:10:21;16.55;;;4.18;;
75007;SDS011;63554;48.940;12.050;2022-09-21T07:13:23;6.60;;;4.13;;
75007;SDS011;63554;48.940;12.050;2022-09-21T07:16:25;6.70;;;4.15;;
75007;SDS011;63554;48.940;12.050;2022-09-21T07:19:27;21.38;;;4.32;;
75007;SDS011;63554;48.940;12.050;2022-09-21T07:22:30;7.78;;;4.18;;
75007;SDS011;63554;48.940;12.050;2022-09-21T07:25:32;5.72;;;3.90;;
75007;SDS011;63554;48.940;12.050;2022-09-21T07:28:34;6.22;;;4.40;;
75007;SDS011;63554;48.940;12.050;2022-09-21T07:31:36;4.88;;;3.83;;
75007;SDS011;63554;48.940;12.050;2022-09-21T07:34:38;8.40;;;4.68;;
75007;SDS011;63554;48.940;12.050;2022-09-21T07:37:41;6.63;;;4.45;;
75007;SDS011;63554;48.940;12.050;2022-09-21T07:40:43;6.07;;;4.72;;
75007;SDS011;63554;48.940;12.050;2022-09-21T07:43:45;6.30;;;4.63;;
75007;SDS011;63554;48.940;12.050;2022-09-21T07:46:47;5.43;;;4.07;;
75007;SDS011;63554;48.940;12.050;2022-09-21T07:49:48;5.80;;;4.38;;
75007;SDS011;63554;48.940;12.050;2022-09-21T07:52:52;6.50;;;5.25;;
75007;SDS011;63554;48.940;12.050;2022-09-21T07:55:59;6.68;;;5.13;;
75007;SDS011;63554;48.940;12.050;2022-09-21T07:59:01;5.65;;;4.63;;
75007;SDS011;63554;48.940;12.050;2022-09-21T08:02:05;7.18;;;4.68;;
75007;SDS011;63554;48.940;12.050;2022-09-21T08:05:07;5.72;;;4.43;;
75007;SDS011;63554;48.940;12.050;2022-09-21T08:08:10;6.57;;;4.57;;
75007;SDS011;63554;48.940;12.050;2022-09-21T08:11:12;5.72;;;4.50;;
75007;SDS011;63554;48.940;12.050;2022-09-21T08:14:15;8.40;;;5.05;;
75007;SDS011;63554;48.940;12.050;2022-09-21T08:17:19;6.25;;;4.68;;
75007;SDS011;63554;48.940;12.050;2022-09-21T08:20:21;6.68;;;5.50;;
75007;SDS011;63554;48.940;12.050;2022-09-21T08:23:24;6.32;;;4.45;;
75007;SDS011;63554;48.940;12.050;2022-09-21T08:26:28;7.22;;;4.88;;
75007;SDS011;63554;48.940;12.050;2022-09-21T08:29:29;7.10;;;5.18;;
75007;SDS011;63554;48.940;12.050;2022-09-21T08:32:31;7.28;;;5.13;;
75007;SDS011;63554;48.940;12.050;2022-09-21T08:35:33;6.82;;;5.22;;
75007;SDS011;63554;48.940;12.050;2022-09-21T08:38:37;6.68;;;5.25;;
75007;SDS011;63554;48.940;12.050;2022-09-21T08:41:46;6.80;;;5.28;;
75007;SDS011;63554;48.940;12.050;2022-09-21T08:45:03;7.68;;;5.32;;
75007;SDS011;63554;48.940;12.050;2022-09-21T08:48:09;6.80;;;5.00;;
75007;SDS011;63554;48.940;12.050;2022-09-21T08:51:16;6.78;;;5.07;;
75007;SDS011;63554;48.940;12.050;2022-09-21T08:54:28;7.05;;;4.90;;
75007;SDS011;63554;48.940;12.050;2022-09-21T08:57:35;7.22;;;5.18;;
75007;SDS011;63554;48.940;12.050;2022-09-21T09:00:37;7.00;;;5.00;;
75007;SDS011;63554;48.940;12.050;2022-09-21T09:07:14;5.72;;;5.13;;
75007;SDS011;63554;48.940;12.050;2022-09-21T09:10:32;7.63;;;5.63;;
75007;SDS011;63554;48.940;12.050;2022-09-21T09:13:42;7.35;;;5.00;;
75007;SDS011;63554;48.940;12.050;2022-09-21T09:17:07;5.65;;;4.60;;
75007;SDS011;63554;48.940;12.050;2022-09-21T09:20:19;6.07;;;4.47;;
75007;SDS011;63554;48.940;12.050;2022-09-21T09:23:24;10.40;;;7.63;;
75007;SDS011;63554;48.940;12.050;2022-09-21T09:26:31;7.72;;;5.95;;
75007;SDS011;63554;48.940;12.050;2022-09-21T09:29:39;6.13;;;4.10;;
75007;SDS011;63554;48.940;12.050;2022-09-21T09:32:46;4.20;;;3.58;;
75007;SDS011;63554;48.940;12.050;2022-09-21T09:35:58;4.72;;;3.65;;
75007;SDS011;63554;48.940;12.050;2022-09-21T09:39:04;4.85;;;3.67;;
75007;SDS011;63554;48.940;12.050;2022-09-21T09:42:15;5.15;;;3.67;;
75007;SDS011;63554;48.940;12.050;2022-09-21T09:45:38;4.00;;;3.60;;
75007;SDS011;63554;48.940;12.050;2022-09-21T09:48:55;3.90;;;3.45;;
75007;SDS011;63554;48.940;12.050;2022-09-21T09:52:13;6.20;;;3.25;;
75007;SDS011;63554;48.940;12.050;2022-09-21T09:55:16;5.68;;;3.85;;
75007;SDS011;63554;48.940;12.050;2022-09-21T09:58:23;3.95;;;2.83;;
75007;SDS011;63554;48.940;12.050;2022-09-21T10:01:40;5.32;;;2.80;;
75007;SDS011;63554;48.940;12.050;2022-09-21T10:04:49;4.28;;;3.22;;
75007;SDS011;63554;48.940;12.050;2022-09-21T10:07:57;5.07;;;3.40;;
75007;SDS011;63554;48.940;12.050;2022-09-21T10:10:59;4.82;;;2.88;;
75007;SDS011;63554;48.940;12.050;2022-09-21T10:14:09;3.88;;;2.90;;
75007;SDS011;63554;48.940;12.050;2022-09-21T10:17:18;4.20;;;2.95;;
75007;SDS011;63554;48.940;12.050;2022-09-21T10:20:20;3.80;;;2.63;;
75007;SDS011;63554;48.940;12.050;2022-09-21T10:23:22;3.78;;;2.17;;
75007;SDS011;63554;48.940;12.050;2022-09-21T10:26:29;3.33;;;2.60;;
75007;SDS011;63554;48.940;12.050;2022-09-21T10:29:38;3.25;;;2.20;;
75007;SDS011;63554;48.940;12.050;2022-09-21T10:32:44;5.43;;;2.60;;
75007;SDS011;63554;48.940;12.050;2022-09-21T10:35:56;11.27;;;7.68;;
75007;SDS011;63554;48.940;12.050;2022-09-21T10:42:23;4.35;;;2.65;;
75007;SDS011;63554;48.940;12.050;2022-09-21T10:45:26;3.85;;;2.15;;
75007;SDS011;63554;48.940;12.050;2022-09-21T10:48:30;3.70;;;2.17;;
75007;SDS011;63554;48.940;12.050;2022-09-21T10:51:32;2.90;;;2.10;;
75007;SDS011;63554;48.940;12.050;2022-09-21T10:54:33;7.97;;;3.55;;
75007;SDS011;63554;48.940;12.050;2022-09-21T10:57:35;22.80;;;5.10;;
75007;SDS011;63554;48.940;12.050;2022-09-21T11:00:44;3.45;;;2.15;;
75007;SDS011;63554;48.940;12.050;2022-09-21T11:03:48;4.47;;;2.30;;
75007;SDS011;63554;48.940;12.050;2022-09-21T11:06:57;2.83;;;2.20;;
75007;SDS011;63554;48.940;12.050;2022-09-21T11:13:16;2.53;;;1.77;;
75007;SDS011;63554;48.940;12.050;2022-09-21T11:16:27;2.10;;;1.88;;
75007;SDS011;63554;48.940;12.050;2022-09-21T11:19:34;2.90;;;1.90;;
75007;SDS011;63554;48.940;12.050;2022-09-21T11:22:41;4.35;;;2.50;;
75007;SDS011;63554;48.940;12.050;2022-09-21T11:25:48;3.15;;;2.45;;
75007;SDS011;63554;48.940;12.050;2022-09-21T11:28:57;2.58;;;2.38;;
75007;SDS011;63554;48.940;12.050;2022-09-21T11:32:10;2.80;;;2.20;;
75007;SDS011;63554;48.940;12.050;2022-09-21T11:35:24;3.28;;;2.03;;
75007;SDS011;63554;48.940;12.050;2022-09-21T11:38:38;2.22;;;1.85;;
75007;SDS011;63554;48.940;12.050;2022-09-21T11:45:21;1.60;;;1.50;;
75007;SDS011;63554;48.940;12.050;2022-09-21T11:48:39;3.58;;;1.27;;
75007;SDS011;63554;48.940;12.050;2022-09-21T11:51:59;1.90;;;1.70;;
75007;SDS011;63554;48.940;12.050;2022-09-21T11:55:20;1.50;;;1.40;;
75007;SDS011;63554;48.940;12.050;2022-09-21T11:58:34;1.83;;;1.25;;
75007;SDS011;63554;48.940;12.050;2022-09-21T12:01:49;1.80;;;1.60;;
75007;SDS011;63554;48.940;12.050;2022-09-21T12:05:05;2.92;;;1.70;;
75007;SDS011;63554;48.940;12.050;2022-09-21T12:08:25;2.33;;;1.88;;
75007;SDS011;63554;48.940;12.050;2022-09-21T12:11:39;2.47;;;1.60;;
75007;SDS011;63554;48.940;12.050;2022-09-21T12:14:50;4.00;;;1.70;;
75007;SDS011;63554;48.940;12.050;2022-09-21T12:18:00;2.42;;;1.90;;
75007;SDS011;63554;48.940;12.050;2022-09-21T12:21:13;1.95;;;1.70;;
75007;SDS011;63554;48.940;12.050;2022-09-21T12:24:19;2.75;;;1.80;;
75007;SDS011;63554;48.940;12.050;2022-09-21T12:27:28;3.05;;;1.70;;
75007;SDS011;63554;48.940;12.050;2022-09-21T12:30:34;2.30;;;1.85;;
75007;SDS011;63554;48.940;12.050;2022-09-21T12:33:40;4.03;;;1.70;;
75007;SDS011;63554;48.940;12.050;2022-09-21T12:36:56;2.20;;;1.67;;
75007;SDS011;63554;48.940;12.050;2022-09-21T12:43:19;2.10;;;1.70;;
75007;SDS011;63554;48.940;12.050;2022-09-21T12:46:33;3.45;;;1.60;;
75007;SDS011;63554;48.940;12.050;2022-09-21T12:49:40;1.98;;;1.40;;
75007;SDS011;63554;48.940;12.050;2022-09-21T12:52:49;2.40;;;1.52;;
75007;SDS011;63554;48.940;12.050;2022-09-21T12:55:54;2.17;;;1.63;;
75007;SDS011;63554;48.940;12.050;2022-09-21T12:59:09;1.65;;;1.40;;
75007;SDS011;63554;48.940;12.050;2022-09-21T13:02:28;2.13;;;1.30;;
75007;SDS011;63554;48.940;12.050;2022-09-21T13:05:33;2.63;;;1.33;;
75007;SDS011;63554;48.940;12.050;2022-09-21T13:08:41;2.35;;;1.75;;
75007;SDS011;63554;48.940;12.050;2022-09-21T13:11:48;1.73;;;1.30;;
75007;SDS011;63554;48.940;12.050;2022-09-21T13:14:57;3.22;;;1.73;;
75007;SDS011;63554;48.940;12.050;2022-09-21T13:18:03;2.08;;;1.60;;
75007;SDS011;63554;48.940;12.050;2022-09-21T13:21:17;2.15;;;1.35;;
75007;SDS011;63554;48.940;12.050;2022-09-21T13:24:23;1.30;;;1.10;;
75007;SDS011;63554;48.940;12.050;2022-09-21T13:27:54;1.80;;;1.15;;
75007;SDS011;63554;48.940;12.050;2022-09-21T13:34:42;2.45;;;1.50;;
75007;SDS011;63554;48.940;12.050;2022-09-21T13:41:24;1.55;;;1.10;;
75007;SDS011;63554;48.940;12.050;2022-09-21T13:44:36;1.48;;;1.35;;
75007;SDS011;63554;48.940;12.050;2022-09-21T13:47:43;1.50;;;1.40;;
75007;SDS011;63554;48.940;12.050;2022-09-21T13:50:46;1.50;;;1.00;;
75007;SDS011;63554;48.940;12.050;2022-09-21T13:53:48;1.30;;;1.20;;
75007;SDS011;63554;48.940;12.050;2022-09-21T13:56:59;1.10;;;1.00;;
75007;SDS011;63554;48.940;12.050;2022-09-21T14:00:23;2.33;;;1.20;;
75007;SDS011;63554;48.940;12.050;2022-09-21T14:03:36;1.60;;;1.30;;
75007;SDS011;63554;48.940;12.050;2022-09-21T14:06:42;3.03;;;1.55;;
75007;SDS011;63554;48.940;12.050;2022-09-21T14:09:52;1.80;;;1.48;;
75007;SDS011;63554;48.940;12.050;2022-09-21T14:12:58;1.98;;;1.40;;
75007;SDS011;63554;48.940;12.050;2022-09-21T14:16:24;1.42;;;1.33;;
75007;SDS011;63554;48.940;12.050;2022-09-21T14:23:11;3.90;;;1.45;;
75007;SDS011;63554;48.940;12.050;2022-09-21T14:26:31;2.20;;;1.50;;
75007;SDS011;63554;48.940;12.050;2022-09-21T14:29:40;1.60;;;1.50;;
75007;SDS011;63554;48.940;12.050;2022-09-21T14:32:46;1.67;;;1.10;;
75007;SDS011;63554;48.940;12.050;2022-09-21T14:35:52;1.65;;;1.20;;
75007;SDS011;63554;48.940;12.050;2022-09-21T14:38:56;1.63;;;1.30;;
75007;SDS011;63554;48.940;12.050;2022-09-21T14:42:02;1.27;;;0.93;;
75007;SDS011;63554;48.940;12.050;2022-09-21T14:45:15;3.38;;;2.40;;
75007;SDS011;63554;48.940;12.050;2022-09-21T14:48:19;1.75;;;1.00;;
75007;SDS011;63554;48.940;12.050;2022-09-21T14:51:32;1.65;;;1.13;;
75007;SDS011;63554;48.940;12.050;2022-09-21T14:54:44;1.30;;;1.20;;
75007;SDS011;63554;48.940;12.050;2022-09-21T14:58:04;1.45;;;1.25;;
75007;SDS011;63554;48.940;12.050;2022-09-21T15:01:33;1.30;;;1.02;;
75007;SDS011;63554;48.940;12.050;2022-09-21T15:04:39;1.10;;;1.00;;
75007;SDS011;63554;48.940;12.050;2022-09-21T15:07:48;1.20;;;1.10;;
75007;SDS011;63554;48.940;12.050;2022-09-21T15:11:16;1.33;;;0.98;;
75007;SDS011;63554;48.940;12.050;2022-09-21T15:14:25;1.52;;;1.00;;
75007;SDS011;63554;48.940;12.050;2022-09-21T15:17:35;1.65;;;1.55;;
75007;SDS011;63554;48.940;12.050;2022-09-21T15:20:54;1.15;;;0.98;;
75007;SDS011;63554;48.940;12.050;2022-09-21T15:24:08;1.13;;;1.02;;
75007;SDS011;63554;48.940;12.050;2022-09-21T15:27:17;2.03;;;0.70;;
75007;SDS011;63554;48.940;12.050;2022-09-21T15:30:23;1.38;;;1.10;;
75007;SDS011;63554;48.940;12.050;2022-09-21T15:33:28;1.50;;;1.15;;
75007;SDS011;63554;48.940;12.050;2022-09-21T15:36:33;2.03;;;1.13;;
75007;SDS011;63554;48.940;12.050;2022-09-21T15:39:36;1.52;;;1.15;;
75007;SDS011;63554;48.940;12.050;2022-09-21T15:42:47;1.33;;;0.70;;
75007;SDS011;63554;48.940;12.050;2022-09-21T15:46:00;1.55;;;0.90;;
75007;SDS011;63554;48.940;12.050;2022-09-21T15:49:08;1.90;;;0.90;;
75007;SDS011;63554;48.940;12.050;2022-09-21T15:52:17;1.83;;;1.42;;
75007;SDS011;63554;48.940;12.050;2022-09-21T15:55:25;1.52;;;1.10;;
75007;SDS011;63554;48.940;12.050;2022-09-21T15:58:31;2.20;;;1.25;;
75007;SDS011;63554;48.940;12.050;2022-09-21T16:01:37;1.20;;;1.10;;
75007;SDS011;63554;48.940;12.050;2022-09-21T16:04:45;1.40;;;1.15;;
75007;SDS011;63554;48.940;12.050;2022-09-21T16:08:03;1.20;;;1.10;;
75007;SDS011;63554;48.940;12.050;2022-09-21T16:11:10;1.20;;;1.10;;
75007;SDS011;63554;48.940;12.050;2022-09-21T16:14:14;1.63;;;1.50;;
75007;SDS011;63554;48.940;12.050;2022-09-21T16:17:34;1.55;;;1.20;;
75007;SDS011;63554;48.940;12.050;2022-09-21T16:20:40;1.40;;;0.90;;
75007;SDS011;63554;48.940;12.050;2022-09-21T16:23:46;2.22;;;1.35;;
75007;SDS011;63554;48.940;12.050;2022-09-21T16:29:56;2.70;;;1.23;;
75007;SDS011;63554;48.940;12.050;2022-09-21T16:32:59;1.98;;;1.25;;
75007;SDS011;63554;48.940;12.050;2022-09-21T16:36:03;1.30;;;1.20;;
75007;SDS011;63554;48.940;12.050;2022-09-21T16:39:07;1.10;;;1.00;;
75007;SDS011;63554;48.940;12.050;2022-09-21T16:42:11;1.00;;;0.90;;
75007;SDS011;63554;48.940;12.050;2022-09-21T16:45:15;1.02;;;0.93;;
75007;SDS011;63554;48.940;12.050;2022-09-21T16:51:25;1.05;;;0.75;;
75007;SDS011;63554;48.940;12.050;2022-09-21T16:54:28;2.97;;;0.90;;
75007;SDS011;63554;48.940;12.050;2022-09-21T16:57:30;2.05;;;1.00;;
75007;SDS011;63554;48.940;12.050;2022-09-21T17:00:33;1.20;;;1.05;;
75007;SDS011;63554;48.940;12.050;2022-09-21T17:03:39;2.28;;;1.08;;
75007;SDS011;63554;48.940;12.050;2022-09-21T17:06:42;2.85;;;1.02;;
75007;SDS011;63554;48.940;12.050;2022-09-21T17:09:44;1.27;;;1.00;;
75007;SDS011;63554;48.940;12.050;2022-09-21T17:12:47;3.22;;;1.90;;
75007;SDS011;63554;48.940;12.050;2022-09-21T17:15:50;1.65;;;1.35;;
75007;SDS011;63554;48.940;12.050;2022-09-21T17:18:52;1.20;;;1.10;;
75007;SDS011;63554;48.940;12.050;2022-09-21T17:21:55;2.92;;;1.15;;
75007;SDS011;63554;48.940;12.050;2022-09-21T17:28:16;2.42;;;1.10;;
75007;SDS011;63554;48.940;12.050;2022-09-21T17:36:49;2.78;;;0.90;;
75007;SDS011;63554;48.940;12.050;2022-09-21T17:40:55;3.53;;;0.88;;
75007;SDS011;63554;48.940;12.050;2022-09-21T17:45:00;1.27;;;0.90;;
75007;SDS011;63554;48.940;12.050;2022-09-21T17:49:17;1.48;;;0.88;;
75007;SDS011;63554;48.940;12.050;2022-09-21T17:53:20;1.30;;;0.90;;
75007;SDS011;63554;48.940;12.050;2022-09-21T17:57:46;1.00;;;0.90;;
75007;SDS011;63554;48.940;12.050;2022-09-21T18:02:19;2.13;;;1.00;;
75007;SDS011;63554;48.940;12.050;2022-09-21T18:06:24;1.80;;;1.35;;
75007;SDS011;63554;48.940;12.050;2022-09-21T18:10:26;2.72;;;1.20;;
75007;SDS011;63554;48.940;12.050;2022-09-21T18:14:34;5.32;;;1.95;;
75007;SDS011;63554;48.940;12.050;2022-09-21T18:18:45;6.38;;;3.85;;
75007;SDS011;63554;48.940;12.050;2022-09-21T18:22:55;2.17;;;1.58;;
75007;SDS011;63554;48.940;12.050;2022-09-21T18:27:02;2.85;;;1.60;;
75007;SDS011;63554;48.940;12.050;2022-09-21T18:31:15;2.30;;;1.30;;
75007;SDS011;63554;48.940;12.050;2022-09-21T18:35:41;1.67;;;1.35;;
75007;SDS011;63554;48.940;12.050;2022-09-21T18:40:00;2.85;;;1.45;;
75007;SDS011;63554;48.940;12.050;2022-09-21T18:48:21;2.53;;;2.00;;
75007;SDS011;63554;48.940;12.050;2022-09-21T18:52:40;2.92;;;2.20;;
75007;SDS011;63554;48.940;12.050;2022-09-21T18:56:55;3.22;;;2.13;;
75007;SDS011;63554;48.940;12.050;2022-09-21T19:00:58;3.72;;;2.47;;
75007;SDS011;63554;48.940;12.050;2022-09-21T19:05:17;3.83;;;2.92;;
75007;SDS011;63554;48.940;12.050;2022-09-21T19:09:36;5.03;;;3.33;;
75007;SDS011;63554;48.940;12.050;2022-09-21T19:13:46;3.22;;;2.60;;
75007;SDS011;63554;48.940;12.050;2022-09-21T19:18:02;4.10;;;2.90;;
75007;SDS011;63554;48.940;12.050;2022-09-21T19:22:17;4.18;;;2.50;;
75007;SDS011;63554;48.940;12.050;2022-09-21T19:26:28;4.20;;;3.45;;
75007;SDS011;63554;48.940;12.050;2022-09-21T19:30:38;5.53;;;3.80;;
75007;SDS011;63554;48.940;12.050;2022-09-21T19:34:42;6.13;;;4.55;;
75007;SDS011;63554;48.940;12.050;2022-09-21T19:38:51;9.70;;;5.68;;
75007;SDS011;63554;48.940;12.050;2022-09-21T19:43:05;7.00;;;5.22;;
75007;SDS011;63554;48.940;12.050;2022-09-21T19:47:19;4.35;;;3.75;;
75007;SDS011;63554;48.940;12.050;2022-09-21T19:51:29;4.68;;;3.30;;